Terminal Aerodrome Forecast
Issued by NWS

Home | Current Version | Previous Version | Text Only | Print | Product List | Glossary On
Versions: 1 2 3 4 5 6 7 8 9 10 11 12 13 14 15 16 17 18 19 20 21 22 23 24 25 26 27 28 29 30 31 32
000
FTUS45 KBOI 292332 CCA
TAFBKE
TAF COR
KBKE 292332Z 3000/3024 10010KT P6SM OVC035
     FM300700 00000KT 2SM BR SCT008 BKN200
     FM301500 VRB03KT P6SM BKN200
     FM302000 32007KT P6SM BKN200=

USA.gov is the U.S. government's official web portal to all federal, state and local government web resources and services.